메인 페이지
METAR-TAF:

METAR-TAF

공항 :

라 아우로라 국제공항

과테말라, 과테말라

위도: 14-35N, 경도: 090-31W, 고도: 1489m

현재 날씨관측

예보는 13분 전, 05:00시(UTC)에 발표되었습니다.
북북동10kt
온도 17°C
습도 68%
기압 1027 hPa
시정 10km 이상
1500m 미만 상공 구름 및 적란운 없음

METAR: MGGT 260500Z 02010KT CAVOK 17/11 Q1027 A3033

시각: 23:13 (05:13 UTC)

예보

예보는 6 시간 13분 전, 23:00시(UTC)에 발표되었습니다.
예보 대상 시간: 26일 00시부터 26일 24시까지 (UTC)
10kt
시정 10km 이상
고도 2200ft 상공 구름 조금
전환 중
26일 04시부터 26일 06시까지 (UTC)
16kt
시정 10km 이상
1500m 미만 상공 구름 및 적란운 없음
전환 중
26일 15시부터 26일 17시까지 (UTC)
고도 1800ft 상공 구름 조금
전환 중
26일 20시부터 26일 22시까지 (UTC)
고도 1800ft 상공 구름 보통

TAF: MGGT 252300Z 2600/2624 36010KT 9999 FEW022 TX25/2620Z TN12/2612Z BECMG 2604/2606 36016KT CAVOK BECMG 2615/2617 FEW018 BECMG 2620/2622 SCT018

4,000개 이상의 공항 관측 자료 및 예보 (METAR 및 TAF 보고).

지도상에서 검색 가능한 기상관측소가 노란 점과 빨간 점으로 표시되어 있습니다.

기상관측소 명을 보려면 표시 위로 마우스를 이동하세요.

날씨 관측과 예보를 보려면 클릭하세요.

지도 변경 : 확대하려면 엑스 표시가 있는 녹색 버튼, 축소하려면 빼기 표시가 있는 녹색 버튼, 다음 페이지의 지도를 보려면 녹색 화살표를 클릭하세요.


METAR-TAF: